Time;durP1;ratioP1;P1;durP2;ratioP2;P2;SDS_P1;SDS_P2;PMS_P1;PMS_P2;Temp;Humidity;BMP_temperature;BMP_pressure;BME280_temperature;BME280_humidity;BME280_pressure;Samples;Min_cycle;Max_cycle;Signal;HPM_P1;HPM_P2
2023/04/22 00:00:07;;;;;;;19.77;12.15;;;;;;;11.25;74.03;94722.66;5004526;28;20203;-66
2023/04/22 00:02:36;;;;;;;12.82;11.60;;;;;;;11.24;73.87;94718.47;5005249;28;20223;-63
2023/04/22 00:05:03;;;;;;;17.98;12.48;;;;;;;11.11;74.14;94717.31;5005107;28;20232;-61
2023/04/22 00:07:30;;;;;;;16.33;12.38;;;;;;;11.04;74.52;94724.38;5005306;28;20319;-61
2023/04/22 00:09:58;;;;;;;18.60;13.35;;;;;;;10.96;74.81;94725.56;5005246;28;20208;-61
2023/04/22 00:12:25;;;;;;;17.40;12.65;;;;;;;10.95;74.87;94723.91;5014772;28;20292;-61
2023/04/22 00:14:52;;;;;;;16.77;11.95;;;;;;;10.89;75.07;94720.72;5027252;28;20235;-62
2023/04/22 00:17:18;;;;;;;19.50;13.27;;;;;;;10.85;75.11;94724.28;5019674;28;20295;-64
2023/04/22 00:19:45;;;;;;;16.55;12.73;;;;;;;10.91;74.98;94724.03;5017597;28;20297;-63
2023/04/22 00:22:12;;;;;;;14.48;12.80;;;;;;;10.93;75.21;94735.84;5019242;28;20309;-62
2023/04/22 00:24:38;;;;;;;15.05;13.38;;;;;;;10.82;75.19;94729.50;5016096;28;20274;-65
2023/04/22 00:27:06;;;;;;;17.60;13.10;;;;;;;10.87;75.25;94726.78;5017702;28;20294;-63
2023/04/22 00:29:33;;;;;;;16.90;12.63;;;;;;;10.66;75.79;94737.75;5017376;28;20261;-62
2023/04/22 00:32:00;;;;;;;16.13;12.30;;;;;;;10.62;76.03;94731.16;5017645;28;20235;-61
2023/04/22 00:34:27;;;;;;;12.55;11.18;;;;;;;10.60;76.10;94738.84;5017994;28;20301;-63
2023/04/22 00:36:54;;;;;;;16.02;11.55;;;;;;;10.77;75.32;94736.47;5019060;28;20230;-62
2023/04/22 00:39:20;;;;;;;16.58;12.13;;;;;;;10.77;75.04;94736.47;5017223;28;20307;-63
2023/04/22 00:41:47;;;;;;;13.77;10.77;;;;;;;10.79;74.88;94732.16;5017195;28;20283;-58
2023/04/22 00:44:17;;;;;;;15.23;12.40;;;;;;;10.75;75.30;94728.06;5017271;28;20377;-61
2023/04/22 00:46:43;;;;;;;18.23;13.60;;;;;;;10.75;75.08;94732.31;5018487;28;20729;-61
2023/04/22 00:49:10;;;;;;;23.92;14.38;;;;;;;10.67;75.32;94727.53;5017218;28;20749;-61
2023/04/22 00:51:37;;;;;;;23.15;13.20;;;;;;;10.62;75.49;94726.91;5017403;28;20231;-62
2023/04/22 00:54:05;;;;;;;19.30;14.25;;;;;;;10.51;75.88;94729.84;5016465;28;20212;-60
2023/04/22 00:56:36;;;;;;;17.63;13.57;;;;;;;10.48;76.15;94740.13;5018130;28;20200;-60
2023/04/22 00:59:03;;;;;;;17.35;14.00;;;;;;;10.33;76.59;94744.97;5017592;28;20214;-61
2023/04/22 01:01:31;;;;;;;20.55;14.77;;;;;;;10.47;76.49;94742.72;5016713;28;20262;-60
2023/04/22 01:03:59;;;;;;;20.63;12.93;;;;;;;10.48;75.91;94744.38;5017395;28;20342;-60
2023/04/22 01:06:27;;;;;;;17.80;14.10;;;;;;;10.30;76.01;94745.09;5017660;28;20241;-62
2023/04/22 01:08:54;;;;;;;17.58;12.57;;;;;;;10.08;76.44;94750.94;5016600;28;20207;-61
2023/04/22 01:11:22;;;;;;;14.65;12.30;;;;;;;10.04;76.31;94749.38;5016893;28;20240;-61
2023/04/22 01:13:48;;;;;;;18.63;12.00;;;;;;;9.97;76.92;94747.94;5016009;28;20290;-61
2023/04/22 01:16:15;;;;;;;14.75;11.93;;;;;;;9.99;76.52;94743.63;5016914;28;20737;-62
2023/04/22 01:18:43;;;;;;;23.45;11.55;;;;;;;9.97;76.25;94742.88;5017635;28;20239;-61
2023/04/22 01:21:11;;;;;;;17.10;11.60;;;;;;;9.93;76.54;94746.38;5016980;28;20294;-63
2023/04/22 01:23:40;;;;;;;15.00;11.65;;;;;;;9.87;76.66;94744.09;5016793;28;20227;-62
2023/04/22 01:26:06;;;;;;;22.33;13.48;;;;;;;9.95;76.57;94743.81;5017183;28;20270;-64
2023/04/22 01:28:34;;;;;;;20.33;13.18;;;;;;;10.01;76.21;94744.41;5017128;28;20239;-63
2023/04/22 01:31:00;;;;;;;19.52;11.93;;;;;;;9.98;76.83;94746.22;5016833;28;20204;-62
2023/04/22 01:33:28;;;;;;;15.77;12.07;;;;;;;10.04;76.72;94746.84;5017921;28;20223;-61
2023/04/22 01:35:54;;;;;;;15.98;12.48;;;;;;;10.01;76.69;94744.41;5016527;28;20299;-61
2023/04/22 01:38:21;;;;;;;19.25;12.48;;;;;;;10.05;76.77;94748.50;5015396;28;20789;-60
2023/04/22 01:40:49;;;;;;;14.05;12.10;;;;;;;10.08;76.93;94745.03;5016779;28;20231;-62
2023/04/22 01:43:16;;;;;;;17.10;12.00;;;;;;;10.15;76.84;94742.19;5017040;28;20439;-61
2023/04/22 01:45:43;;;;;;;16.30;12.32;;;;;;;10.19;76.86;94740.41;5015678;28;20715;-62
2023/04/22 01:48:10;;;;;;;15.88;11.50;;;;;;;10.28;76.61;94742.59;5016421;28;20911;-62
2023/04/22 01:50:37;;;;;;;18.33;11.40;;;;;;;10.41;76.38;94740.41;5016966;28;20318;-62
2023/04/22 01:53:04;;;;;;;14.40;12.07;;;;;;;10.25;76.55;94740.19;5017513;28;20306;-62
2023/04/22 01:55:34;;;;;;;13.13;10.90;;;;;;;10.30;76.53;94742.56;5016246;28;20597;-61
2023/04/22 01:58:03;;;;;;;12.02;10.63;;;;;;;10.27;76.15;94729.97;5016027;28;20215;-60
2023/04/22 02:00:30;;;;;;;14.77;9.90;;;;;;;10.42;74.82;94744.59;5017012;28;20343;-60
2023/04/22 02:02:56;;;;;;;10.50;8.40;;;;;;;10.32;74.50;94743.31;5017459;28;21573;-61
2023/04/22 02:05:23;;;;;;;12.68;9.15;;;;;;;10.30;74.32;94740.00;5016421;28;20314;-59
2023/04/22 02:07:51;;;;;;;10.55;9.40;;;;;;;10.26;74.18;94743.53;5015799;28;20827;-61
2023/04/22 02:10:18;;;;;;;9.23;8.38;;;;;;;10.19;74.84;94730.25;5016032;28;20639;-62
2023/04/22 02:12:45;;;;;;;13.32;9.05;;;;;;;10.22;74.83;94743.66;5016864;28;20299;-60
2023/04/22 02:15:14;;;;;;;10.15;8.90;;;;;;;10.18;74.65;94748.88;5016029;28;21213;-61
2023/04/22 02:17:42;;;;;;;10.02;9.13;;;;;;;10.17;74.95;94740.41;5017600;28;20200;-61
2023/04/22 02:20:10;;;;;;;9.20;8.35;;;;;;;10.21;74.99;94744.53;5015669;28;20777;-61
2023/04/22 02:22:38;;;;;;;14.00;9.25;;;;;;;10.21;75.08;94743.72;5016975;28;20879;-63
2023/04/22 02:25:06;;;;;;;9.35;8.43;;;;;;;10.15;74.80;94737.09;5020766;28;20727;-62
2023/04/22 02:27:32;;;;;;;13.07;9.05;;;;;;;10.20;74.59;94735.25;5028615;28;20291;-62
2023/04/22 02:29:59;;;;;;;9.73;8.63;;;;;;;10.20;74.40;94739.50;5030738;28;20282;-63
2023/04/22 02:32:27;;;;;;;15.68;9.43;;;;;;;10.24;74.53;94738.53;5033528;28;20660;-63
2023/04/22 02:34:54;;;;;;;15.07;7.82;;;;;;;10.25;74.31;94742.72;5017697;28;20228;-62
2023/04/22 02:37:21;;;;;;;10.00;8.35;;;;;;;10.28;74.46;94741.78;5014149;28;20232;-63
2023/04/22 02:39:48;;;;;;;9.45;8.55;;;;;;;10.35;73.56;94743.22;5014123;28;20674;-63
2023/04/22 02:42:15;;;;;;;10.20;9.30;;;;;;;10.40;73.63;94746.38;5013534;28;20228;-63
2023/04/22 02:44:41;;;;;;;8.82;8.00;;;;;;;10.31;73.86;94742.50;5013840;28;20260;-63
2023/04/22 02:47:08;;;;;;;10.30;8.98;;;;;;;10.28;73.92;94752.75;5029513;28;20273;-62
2023/04/22 02:49:36;;;;;;;9.95;8.60;;;;;;;10.21;74.07;94752.16;5013047;28;21967;-62
2023/04/22 02:52:03;;;;;;;14.52;9.95;;;;;;;10.20;74.34;94755.56;5013561;28;20239;-62
2023/04/22 02:54:29;;;;;;;9.85;8.75;;;;;;;10.18;74.20;94742.06;5024490;28;20234;-64
2023/04/22 02:56:56;;;;;;;9.68;8.65;;;;;;;10.23;74.19;94744.47;5020339;28;20236;-63
2023/04/22 02:59:23;;;;;;;11.43;8.70;;;;;;;10.32;74.07;94749.22;5013881;28;20236;-63
2023/04/22 03:01:50;;;;;;;9.15;7.93;;;;;;;10.12;74.47;94755.03;5013441;28;20239;-62
2023/04/22 03:04:17;;;;;;;10.95;8.95;;;;;;;10.12;74.60;94752.47;5014454;28;20244;-63
2023/04/22 03:06:45;;;;;;;10.68;9.65;;;;;;;10.11;74.71;94748.28;5013702;28;20228;-61
2023/04/22 03:09:11;;;;;;;10.50;9.38;;;;;;;9.99;75.25;94751.25;5014224;28;20224;-60
2023/04/22 03:11:38;;;;;;;11.63;9.80;;;;;;;9.90;76.15;94756.66;5023738;28;20227;-63
2023/04/22 03:14:05;;;;;;;11.18;9.77;;;;;;;9.89;76.36;94755.84;5033656;28;20223;-62
2023/04/22 03:16:33;;;;;;;15.77;11.75;;;;;;;9.85;75.97;94761.09;5018735;28;20201;-62
2023/04/22 03:19:00;;;;;;;13.93;11.10;;;;;;;9.88;76.20;94759.28;5013740;28;20242;-62
2023/04/22 03:21:27;;;;;;;15.98;11.88;;;;;;;9.84;76.29;94756.91;5013423;28;20236;-63
2023/04/22 03:23:55;;;;;;;15.98;11.52;;;;;;;9.81;76.48;94767.16;5013532;28;20287;-63
2023/04/22 03:26:22;;;;;;;18.15;12.40;;;;;;;9.87;76.41;94759.31;5013417;28;20670;-63
2023/04/22 03:28:49;;;;;;;18.08;11.55;;;;;;;9.78;76.66;94775.69;5013907;28;20211;-63
2023/04/22 03:31:15;;;;;;;15.25;12.20;;;;;;;9.71;77.19;94765.81;5018051;28;20232;-64
2023/04/22 03:33:42;;;;;;;21.85;12.57;;;;;;;9.74;77.20;94766.53;5013620;28;20227;-64
2023/04/22 03:36:09;;;;;;;29.42;17.10;;;;;;;9.72;77.33;94762.38;5013457;28;20232;-63
2023/04/22 03:38:35;;;;;;;27.20;17.05;;;;;;;9.70;77.02;94771.75;5013250;28;20235;-63
2023/04/22 03:41:04;;;;;;;31.10;17.52;;;;;;;9.74;77.18;94776.69;5012505;28;20204;-61
2023/04/22 03:43:30;;;;;;;33.55;18.38;;;;;;;9.70;77.03;94774.28;5013267;28;20236;-63
2023/04/22 03:45:57;;;;;;;34.53;18.80;;;;;;;9.74;77.52;94780.94;5013022;28;20196;-63
2023/04/22 03:48:24;;;;;;;26.63;16.35;;;;;;;9.78;77.70;94785.03;5013296;28;20658;-62
2023/04/22 03:50:50;;;;;;;31.73;17.08;;;;;;;9.78;77.53;94777.41;5018881;28;20692;-63
2023/04/22 03:53:17;;;;;;;27.67;15.88;;;;;;;9.90;77.09;94777.78;5033109;28;20227;-63
2023/04/22 03:55:44;;;;;;;28.63;14.55;;;;;;;9.99;76.39;94776.63;5032824;28;20231;-64
2023/04/22 03:58:12;;;;;;;25.15;14.68;;;;;;;10.13;76.37;94784.59;5032751;28;20262;-64
2023/04/22 04:00:38;;;;;;;32.72;16.13;;;;;;;10.29;76.11;94784.91;5028949;28;20298;-64
2023/04/22 04:03:05;;;;;;;22.67;12.63;;;;;;;10.46;75.27;94786.81;5012794;28;20238;-63
2023/04/22 04:05:32;;;;;;;19.88;14.15;;;;;;;10.60;75.16;94797.28;5012548;28;20263;-63
2023/04/22 04:07:58;;;;;;;16.70;12.70;;;;;;;10.64;74.79;94786.09;5012394;28;20274;-64
2023/04/22 04:10:25;;;;;;;24.13;14.07;;;;;;;10.74;74.31;94797.56;5013301;28;20236;-63
2023/04/22 04:12:52;;;;;;;19.42;13.57;;;;;;;10.82;73.82;94787.94;5014395;28;20197;-62
2023/04/22 04:15:20;;;;;;;24.13;12.68;;;;;;;11.01;73.19;94790.59;5012919;28;20255;-63
2023/04/22 04:17:47;;;;;;;14.18;12.05;;;;;;;11.16;72.73;94789.16;5013220;28;20196;-63
2023/04/22 04:20:14;;;;;;;21.08;12.18;;;;;;;11.30;72.05;94794.53;5012936;28;20235;-65
2023/04/22 04:22:41;;;;;;;20.35;12.25;;;;;;;11.73;71.70;94795.28;5012947;28;20205;-65
2023/04/22 04:25:09;;;;;;;17.55;12.45;;;;;;;12.58;69.07;94791.56;5012955;28;20302;-65
2023/04/22 04:27:38;;;;;;;18.92;11.90;;;;;;;13.51;66.28;94798.19;5012331;28;20200;-64
2023/04/22 04:30:05;;;;;;;13.50;11.02;;;;;;;14.26;62.38;94795.22;5012869;28;20204;-64
2023/04/22 04:32:34;;;;;;;19.83;10.90;;;;;;;14.75;60.46;94791.81;5012422;28;20306;-65
2023/04/22 04:35:02;;;;;;;11.20;9.23;;;;;;;15.36;58.90;94789.25;5013474;28;20287;-63
2023/04/22 04:37:28;;;;;;;10.82;8.32;;;;;;;16.15;55.98;94794.91;5012608;28;20254;-65
2023/04/22 04:39:58;;;;;;;14.20;9.23;;;;;;;16.64;53.87;94803.06;5012517;28;20638;-64
2023/04/22 04:42:25;;;;;;;12.68;9.85;;;;;;;17.13;51.88;94804.31;5012519;28;20215;-65
2023/04/22 04:44:52;;;;;;;12.88;10.63;;;;;;;18.16;49.04;94797.56;5016737;28;20216;-65
2023/04/22 04:47:19;;;;;;;19.35;11.57;;;;;;;19.66;44.75;94800.75;5016613;28;20239;-63
2023/04/22 04:49:47;;;;;;;14.80;10.88;;;;;;;21.08;41.57;94800.25;5031001;28;20281;-65
2023/04/22 04:52:14;;;;;;;17.63;10.90;;;;;;;22.04;39.22;94801.09;5031007;28;20203;-64
2023/04/22 04:54:40;;;;;;;16.27;10.90;;;;;;;22.59;38.38;94804.22;5030406;28;20285;-64
2023/04/22 04:57:08;;;;;;;26.73;12.27;;;;;;;22.53;38.28;94808.16;5017943;28;20231;-61
2023/04/22 04:59:35;;;;;;;18.13;11.85;;;;;;;21.86;39.13;94810.34;5011669;28;20689;-63
2023/04/22 05:02:02;;;;;;;23.00;12.95;;;;;;;21.33;40.10;94818.06;5018656;28;20231;-65
2023/04/22 05:04:29;;;;;;;20.40;11.85;;;;;;;20.81;41.29;94816.97;5031433;28;20320;-64
2023/04/22 05:06:57;;;;;;;18.13;11.75;;;;;;;20.62;41.78;94824.50;5019514;28;20831;-62
2023/04/22 05:09:23;;;;;;;13.75;10.40;;;;;;;20.75;41.59;94825.22;5011991;28;20196;-65
2023/04/22 05:11:50;;;;;;;15.52;10.27;;;;;;;20.73;40.85;94816.75;5011394;28;20224;-65
2023/04/22 05:14:16;;;;;;;18.08;12.13;;;;;;;20.46;41.39;94816.28;5011466;28;20227;-64
2023/04/22 05:16:43;;;;;;;16.33;13.02;;;;;;;20.34;41.46;94818.81;5020534;28;20231;-63
2023/04/22 05:19:10;;;;;;;12.60;11.32;;;;;;;20.45;41.47;94823.22;5031215;28;20270;-64
2023/04/22 05:21:36;;;;;;;19.80;12.15;;;;;;;21.13;40.37;94823.97;5031180;28;21236;-63
2023/04/22 05:24:05;;;;;;;11.15;9.70;;;;;;;21.90;38.73;94822.09;5030977;28;20227;-64
2023/04/22 05:26:32;;;;;;;13.90;10.48;;;;;;;22.39;37.59;94824.06;5029369;28;20289;-66
2023/04/22 05:28:58;;;;;;;14.73;10.52;;;;;;;22.51;36.88;94819.63;5011372;28;20274;-66
2023/04/22 05:31:25;;;;;;;13.82;10.73;;;;;;;22.70;36.61;94824.88;5010871;28;20204;-65
2023/04/22 05:33:52;;;;;;;8.65;7.95;;;;;;;23.21;35.15;94818.78;5011087;28;20230;-65
2023/04/22 05:36:18;;;;;;;8.57;6.57;;;;;;;23.71;34.31;94816.94;5010997;28;20720;-63
2023/04/22 05:38:45;;;;;;;7.38;6.22;;;;;;;24.46;33.12;94823.16;5014063;28;20227;-65
2023/04/22 05:41:13;;;;;;;6.93;5.88;;;;;;;25.11;31.52;94822.22;5031190;28;20293;-64
2023/04/22 05:43:40;;;;;;;6.60;5.95;;;;;;;25.47;31.38;94820.50;5030775;28;20235;-65
2023/04/22 05:46:06;;;;;;;6.38;4.85;;;;;;;26.11;30.02;94819.44;5030722;28;20267;-64
2023/04/22 05:48:33;;;;;;;9.88;6.03;;;;;;;26.88;29.25;94823.84;5023215;28;20228;-66
2023/04/22 05:51:00;;;;;;;8.43;5.60;;;;;;;27.44;28.29;94817.22;5010925;28;20251;-64
2023/04/22 05:53:26;;;;;;;7.35;5.32;;;;;;;28.29;27.12;94815.19;5010566;28;20787;-65
2023/04/22 05:55:53;;;;;;;5.85;5.35;;;;;;;29.34;25.76;94816.69;5011213;28;20196;-65
2023/04/22 05:58:21;;;;;;;8.52;7.72;;;;;;;29.83;24.89;94811.16;5011121;28;20231;-65
2023/04/22 06:00:48;;;;;;;5.40;4.88;;;;;;;30.27;24.99;94804.25;5023855;28;20681;-65
2023/04/22 06:03:14;;;;;;;11.90;10.38;;;;;;;30.83;24.38;94806.50;5011403;28;20561;-65
2023/04/22 06:05:43;;;;;;;9.50;8.43;;;;;;;31.97;22.93;94803.19;5014535;28;20652;-65
2023/04/22 06:08:09;;;;;;;8.50;6.47;;;;;;;33.08;21.78;94808.47;5014598;28;20235;-65
2023/04/22 06:10:36;;;;;;;6.35;5.78;;;;;;;34.14;20.66;94814.09;5030591;28;20207;-65
2023/04/22 06:13:03;;;;;;;6.60;6.03;;;;;;;35.03;20.05;94806.50;5034412;28;20231;-67
2023/04/22 06:15:31;;;;;;;7.05;5.70;;;;;;;36.17;18.74;94799.63;5034626;28;20235;-66
2023/04/22 06:17:57;;;;;;;7.40;6.15;;;;;;;37.30;18.08;94803.69;5029488;28;20227;-66
2023/04/22 06:20:24;;;;;;;7.13;5.78;;;;;;;38.87;17.10;94801.53;5014904;28;20235;-67
2023/04/22 06:22:51;;;;;;;7.47;5.82;;;;;;;39.78;16.40;94798.09;5014777;28;20208;-67
2023/04/22 06:25:18;;;;;;;6.50;6.00;;;;;;;40.42;16.10;94792.56;5014611;28;20691;-68
2023/04/22 06:27:44;;;;;;;7.28;4.88;;;;;;;39.96;16.23;94798.97;5014271;28;20682;-67
2023/04/22 06:30:11;;;;;;;10.50;9.75;;;;;;;39.57;16.19;94806.75;5014525;28;20258;-66
2023/04/22 06:32:40;;;;;;;9.45;8.80;;;;;;;39.47;16.20;94801.25;5013910;28;20674;-66
2023/04/22 06:35:08;;;;;;;5.80;5.40;;;;;;;39.96;16.25;94809.59;5014215;28;20247;-66
2023/04/22 06:37:34;;;;;;;6.20;5.75;;;;;;;40.76;15.84;94809.34;5014423;28;20286;-67
2023/04/22 06:40:01;;;;;;;6.72;6.13;;;;;;;40.81;15.79;94796.09;5014544;28;20282;-66
2023/04/22 06:42:27;;;;;;;10.80;6.35;;;;;;;40.20;15.97;94795.09;5014221;28;20298;-65
2023/04/22 06:44:54;;;;;;;5.75;5.15;;;;;;;39.87;15.90;94797.69;5020084;28;20266;-64
2023/04/22 06:47:21;;;;;;;6.22;5.72;;;;;;;39.58;15.87;94802.25;5029946;28;20201;-67
2023/04/22 06:49:49;;;;;;;7.53;6.82;;;;;;;39.26;16.23;94796.53;5025540;28;20701;-67
2023/04/22 06:52:16;;;;;;;6.72;6.18;;;;;;;40.33;15.83;94794.03;5014001;28;20201;-63
2023/04/22 06:54:42;;;;;;;7.25;6.57;;;;;;;40.06;16.10;94799.97;5014112;28;20274;-66
2023/04/22 06:57:09;;;;;;;6.85;6.25;;;;;;;39.96;16.19;94798.97;5014280;28;20239;-66
2023/04/22 06:59:36;;;;;;;8.43;6.00;;;;;;;40.60;15.51;94805.59;5027814;28;20631;-67
2023/04/22 07:02:02;;;;;;;7.25;6.60;;;;;;;40.71;15.24;94807.38;5029817;28;20235;-66
2023/04/22 07:04:30;;;;;;;10.90;5.93;;;;;;;41.13;14.76;94810.38;5013516;28;20270;-66
2023/04/22 07:06:58;;;;;;;8.77;5.95;;;;;;;40.56;15.78;94803.69;5013541;28;20720;-65
2023/04/22 07:09:25;;;;;;;6.75;6.32;;;;;;;40.66;15.40;94811.81;5025661;28;20235;-66
2023/04/22 07:11:52;;;;;;;7.13;6.28;;;;;;;40.56;15.79;94803.69;5015186;28;20232;-67
2023/04/22 07:14:18;;;;;;;6.20;5.57;;;;;;;41.19;15.19;94808.63;5013234;28;20286;-66
2023/04/22 07:16:46;;;;;;;7.45;6.95;;;;;;;41.15;14.75;94806.66;5013413;28;20220;-66
2023/04/22 07:19:13;;;;;;;6.60;5.90;;;;;;;41.81;14.47;94805.63;5013467;28;20235;-67
2023/04/22 07:21:39;;;;;;;5.50;5.10;;;;;;;42.80;13.85;94813.16;5013780;28;20643;-67
2023/04/22 07:24:10;;;;;;;5.95;4.70;;;;;;;43.97;13.10;94805.63;5013545;28;20200;-66
2023/04/22 07:26:37;;;;;;;5.60;4.95;;;;;;;43.67;13.36;94807.19;5013401;28;20278;-67
2023/04/22 07:29:04;;;;;;;4.93;4.55;;;;;;;41.78;14.38;94812.25;5013337;28;20239;-67
2023/04/22 07:31:31;;;;;;;5.18;4.72;;;;;;;40.44;14.69;94798.44;5014321;28;20203;-64
2023/04/22 07:33:57;;;;;;;6.72;5.10;;;;;;;39.63;15.54;94804.97;5027760;28;20242;-65
2023/04/22 07:36:25;;;;;;;5.65;4.10;;;;;;;40.20;15.87;94802.28;5033195;28;20227;-65
2023/04/22 07:38:52;;;;;;;5.80;3.80;;;;;;;42.05;14.66;94806.94;5033396;28;20200;-67
2023/04/22 07:41:20;;;;;;;5.35;4.20;;;;;;;43.24;13.84;94802.19;5020544;28;20239;-67
2023/04/22 07:43:46;;;;;;;4.65;4.20;;;;;;;43.70;13.01;94806.66;5012486;28;20201;-68
2023/04/22 07:46:13;;;;;;;4.90;4.50;;;;;;;44.71;12.94;94802.47;5012969;28;20255;-67
2023/04/22 07:48:40;;;;;;;5.05;4.40;;;;;;;44.46;12.57;94797.13;5012774;28;20240;-67
2023/04/22 07:51:06;;;;;;;5.40;4.72;;;;;;;45.14;12.57;94793.00;5023030;28;20316;-67
2023/04/22 07:53:33;;;;;;;4.68;4.05;;;;;;;45.90;12.03;94802.59;5013036;28;20239;-67
2023/04/22 07:56:01;;;;;;;6.60;4.82;;;;;;;43.56;12.86;94794.81;5013037;28;20251;-67
2023/04/22 07:58:29;;;;;;;5.82;4.32;;;;;;;42.39;13.42;94796.00;5013132;28;20196;-67
2023/04/22 08:00:56;;;;;;;5.45;4.30;;;;;;;40.85;14.67;94791.88;5012605;28;20224;-65
2023/04/22 08:03:23;;;;;;;5.25;4.75;;;;;;;39.87;15.27;94795.03;5015415;28;20283;-67
2023/04/22 08:05:50;;;;;;;4.13;3.92;;;;;;;39.87;15.45;94792.38;5032730;28;20255;-67
2023/04/22 08:08:16;;;;;;;4.30;3.90;;;;;;;38.54;16.38;94786.19;5032155;28;20760;-67
2023/04/22 08:10:43;;;;;;;19.05;16.85;;;;;;;39.07;15.67;94787.94;5032691;28;20239;-67
2023/04/22 08:13:10;;;;;;;29.25;21.85;;;;;;;40.34;15.56;94783.09;5031057;28;20242;-66
2023/04/22 08:15:38;;;;;;;10.48;9.15;;;;;;;41.08;14.36;94782.88;5012639;28;20203;-67
2023/04/22 08:18:05;;;;;;;4.50;4.10;;;;;;;42.39;13.69;94782.63;5012191;28;20196;-66
2023/04/22 08:20:32;;;;;;;3.72;3.45;;;;;;;43.34;12.50;94781.63;5012425;28;20251;-66
2023/04/22 08:22:59;;;;;;;6.78;4.03;;;;;;;43.29;12.75;94778.16;5012552;28;20263;-66
2023/04/22 08:25:26;;;;;;;4.30;4.00;;;;;;;43.27;12.69;94773.06;5011844;28;20731;-66
2023/04/22 08:27:52;;;;;;;5.63;4.20;;;;;;;42.80;13.13;94781.06;5012218;28;20670;-67
2023/04/22 08:30:19;;;;;;;8.00;5.03;;;;;;;42.96;13.19;94780.13;5012229;28;20232;-67
2023/04/22 08:32:47;;;;;;;7.05;4.20;;;;;;;43.54;12.95;94777.44;5013766;28;20235;-67
2023/04/22 08:35:14;;;;;;;4.53;4.18;;;;;;;44.06;12.47;94771.91;5012454;28;20227;-66
2023/04/22 08:37:41;;;;;;;4.05;3.72;;;;;;;44.88;12.21;94765.44;5012094;28;20235;-68
2023/04/22 08:40:09;;;;;;;4.63;4.22;;;;;;;45.57;11.62;94770.03;5012091;28;20386;-69
2023/04/22 08:42:36;;;;;;;4.75;4.00;;;;;;;46.19;10.95;94757.03;5011752;28;20204;-66
2023/04/22 08:45:04;;;;;;;5.32;4.85;;;;;;;45.07;11.28;94761.09;5012128;28;20224;-66
2023/04/22 08:47:32;;;;;;;5.90;4.40;;;;;;;43.43;12.44;94755.19;5011844;28;20212;-66
2023/04/22 08:50:03;;;;;;;4.30;3.92;;;;;;;43.55;12.25;94755.75;5011686;28;20224;-66
2023/04/22 08:52:30;;;;;;;5.10;4.60;;;;;;;44.14;12.14;94749.97;5011690;28;20236;-66
2023/04/22 08:54:57;;;;;;;8.45;4.25;;;;;;;44.19;12.08;94744.63;5011835;28;20239;-67
2023/04/22 08:57:24;;;;;;;6.47;4.57;;;;;;;43.79;12.15;94739.22;5012136;28;20236;-66
2023/04/22 08:59:51;;;;;;;7.07;3.78;;;;;;;42.70;12.99;94740.91;5020181;28;20202;-65
2023/04/22 09:02:20;;;;;;;4.13;3.78;;;;;;;42.60;12.95;94744.31;5032484;28;20270;-66
2023/04/22 09:04:48;;;;;;;10.85;4.28;;;;;;;41.76;12.78;94744.19;5019340;28;20724;-66
2023/04/22 09:07:20;;;;;;;7.43;3.63;;;;;;;41.47;12.75;94737.47;5012591;28;20333;-65
2023/04/22 09:09:48;;;;;;;3.60;3.40;;;;;;;40.36;13.74;94746.38;5012583;28;20196;-66
2023/04/22 09:12:16;;;;;;;6.65;3.90;;;;;;;39.77;14.46;94735.31;5012920;28;20188;-66
2023/04/22 09:14:44;;;;;;;6.47;3.75;;;;;;;39.09;14.56;94730.84;5024749;28;20576;-64
2023/04/22 09:17:11;;;;;;;7.70;3.85;;;;;;;38.08;14.92;94741.81;5028215;28;20804;-65
2023/04/22 09:19:37;;;;;;;9.23;4.20;;;;;;;36.53;16.16;94740.72;5031594;28;20678;-66
2023/04/22 09:22:04;;;;;;;3.95;3.63;;;;;;;34.13;17.74;94744.72;5014773;28;20224;-66
2023/04/22 09:24:32;;;;;;;4.32;4.00;;;;;;;31.82;20.22;94737.59;5011137;28;20232;-66
2023/04/22 09:27:02;;;;;;;4.55;3.83;;;;;;;30.27;22.20;94738.72;5030374;28;20715;-65
2023/04/22 09:29:30;;;;;;;3.50;3.20;;;;;;;29.95;22.25;94746.84;5030421;28;20195;-66
2023/04/22 09:31:56;;;;;;;3.80;3.50;;;;;;;29.98;21.89;94736.03;5011359;28;20227;-66
2023/04/22 09:34:23;;;;;;;7.05;3.78;;;;;;;29.42;22.56;94730.28;5010767;28;20708;-66
2023/04/22 09:36:51;;;;;;;6.47;3.90;;;;;;;28.99;23.25;94729.84;5011662;28;20255;-65
2023/04/22 09:39:18;;;;;;;4.40;4.00;;;;;;;28.40;24.11;94724.19;5030182;28;20243;-64
2023/04/22 09:41:55;;;;;;;5.38;3.75;;;;;;;27.85;25.49;94712.84;5030988;28;20204;-64
2023/04/22 09:44:22;;;;;;;6.45;3.92;;;;;;;27.39;26.12;94718.53;5015304;28;20204;-63
2023/04/22 09:46:50;;;;;;;6.30;3.30;;;;;;;26.54;26.01;94731.78;5010695;28;20244;-65
2023/04/22 09:49:17;;;;;;;4.45;4.05;;;;;;;25.91;26.38;94735.50;5010826;28;20196;-65
2023/04/22 09:51:43;;;;;;;5.53;2.95;;;;;;;25.40;27.99;94739.63;5014718;28;20224;-67
2023/04/22 09:54:10;;;;;;;3.30;2.58;;;;;;;24.52;29.36;94739.44;5019376;28;20247;-65
2023/04/22 09:56:48;;;;;;;5.57;2.58;;;;;;;23.81;28.93;94745.09;5026448;28;20207;-67
2023/04/22 09:59:19;;;;;;;5.25;2.95;;;;;;;23.13;29.79;94741.69;4983578;28;20207;-59
2023/04/22 10:01:46;;;;;;;11.55;2.88;;;;;;;22.62;31.01;94736.63;4979779;28;20196;-63
2023/04/22 10:04:14;;;;;;;5.85;2.97;;;;;;;22.08;31.49;94739.56;4981144;28;20218;-62
2023/04/22 10:06:41;;;;;;;3.85;2.75;;;;;;;21.38;33.04;94735.81;4978234;28;20373;-63
2023/04/22 10:09:08;;;;;;;4.03;3.00;;;;;;;21.54;33.46;94735.38;4981992;28;20849;-63
2023/04/22 10:11:36;;;;;;;3.03;2.60;;;;;;;21.37;31.62;94726.41;4982112;28;20208;-62
2023/04/22 10:14:04;;;;;;;6.25;2.72;;;;;;;21.44;31.63;94724.97;4981823;28;20366;-63
2023/04/22 10:16:33;;;;;;;2.88;2.30;;;;;;;21.76;30.03;94729.28;4982942;28;20688;-66
2023/04/22 10:19:03;;;;;;;4.03;2.00;;;;;;;21.88;29.64;94721.31;4983710;28;20760;-63
2023/04/22 10:21:31;;;;;;;3.58;2.25;;;;;;;22.27;28.92;94714.56;4984043;28;20243;-64
2023/04/22 10:23:59;;;;;;;2.28;2.15;;;;;;;22.65;29.65;94716.47;4984040;28;20239;-63
2023/04/22 10:26:40;;;;;;;4.00;3.60;;;;;;;22.53;29.32;94716.69;4984229;28;20228;-66
2023/04/22 10:29:09;;;;;;;3.20;2.47;;;;;;;22.31;28.61;94709.94;4985338;28;20208;-65
2023/04/22 10:31:38;;;;;;;5.68;2.85;;;;;;;22.58;30.30;94711.94;4981766;28;20204;-64
2023/04/22 10:34:15;;;;;;;2.65;2.45;;;;;;;22.64;29.44;94707.06;4983973;28;20506;-61
2023/04/22 10:37:06;;;;;;;3.95;2.25;;;;;;;22.46;30.72;94702.66;4984041;28;20290;-63
2023/04/22 10:39:33;;;;;;;5.88;2.47;;;;;;;22.01;30.75;94705.63;4966611;28;20211;-61
2023/04/22 10:42:10;;;;;;;2.58;2.38;;;;;;;21.77;31.48;94705.06;4983032;28;20312;-63
2023/04/22 10:44:49;;;;;;;4.05;2.80;;;;;;;21.83;30.85;94709.69;4983102;28;20215;-65
2023/04/22 10:47:26;;;;;;;3.83;2.90;;;;;;;21.89;31.05;94701.44;4984703;28;20237;-65
2023/04/22 10:50:08;;;;;;;3.47;2.72;;;;;;;22.17;30.34;94715.50;4984321;28;20321;-63
2023/04/22 10:52:35;;;;;;;25.92;18.30;;;;;;;22.36;30.83;94703.44;4987535;28;20215;-64
2023/04/22 10:55:02;;;;;;;7.00;3.55;;;;;;;22.23;30.26;94702.03;4987097;28;20200;-62
2023/04/22 10:57:48;;;;;;;8.23;5.50;;;;;;;21.68;31.91;94702.28;4988380;28;20227;-65
2023/04/22 11:00:41;;;;;;;5.40;4.90;;;;;;;21.70;31.64;94705.56;4985369;28;20236;-62
2023/04/22 11:03:17;;;;;;;3.92;3.42;;;;;;;21.73;31.29;94694.16;4988562;28;20211;-64
2023/04/22 11:05:44;;;;;;;4.63;4.32;;;;;;;21.84;31.25;94701.81;4987150;28;20328;-63
2023/04/22 11:08:20;;;;;;;3.63;3.30;;;;;;;21.53;31.54;94692.41;4985333;28;20382;-62
2023/04/22 11:10:48;;;;;;;4.15;3.10;;;;;;;21.53;31.74;94698.34;4986563;28;20211;-63
2023/04/22 11:13:16;;;;;;;5.03;2.83;;;;;;;21.43;31.88;94692.31;4987257;28;20224;-62
2023/04/22 11:15:47;;;;;;;4.97;2.58;;;;;;;21.04;32.39;94709.25;4986654;28;20293;-63
2023/04/22 11:18:17;;;;;;;3.30;2.00;;;;;;;20.43;34.56;94711.53;4986819;28;20215;-61
2023/04/22 11:20:44;;;;;;;3.80;2.65;;;;;;;20.40;34.49;94711.75;4987752;28;20296;-62
2023/04/22 11:23:11;;;;;;;5.47;1.90;;;;;;;20.26;35.00;94727.47;4987849;28;20295;-62
2023/04/22 11:25:38;;;;;;;3.65;2.92;;;;;;;20.03;37.11;94730.03;4987954;28;20421;-62
2023/04/22 11:28:04;;;;;;;4.18;2.03;;;;;;;19.38;38.19;94732.31;4985350;28;20338;-63